Aviation Digital Data Service (ADDS)

Output produced by METARs form (0235 UTC 14 December 2018)
found at http://aviationweather.gov/metar/data/
 
KRYY 140148Z 09012G17KT 10SM SCT060 OVC080 09/01 A3017 RMK AO2 SLPNO T00890011
KRYY 132332Z 1400/1424 09008KT P6SM BKN050 BKN120 
     FM140300 09010KT P6SM -RA OVC025 
     FM140800 08008KT 4SM -RA BR BKN007 OVC012 
     FM141200 08011KT 2SM SHRA BR OVC005 
     FM141700 09011KT 4SM SHRA OVC006 
     FM142300 10008KT 2SM SHRA BR OVC007
       
KPUJ 140215Z AUTO 10008KT 10SM BKN050 OVC055 08/01 A3014 RMK AO2
KCNI 140215Z AUTO 07005KT 10SM OVC028 10/M03 A3020 RMK AO2
KPDK 140153Z VRB05KT 9SM FEW026 BKN065 OVC075 09/01 A3017 RMK AO2 SLP226 T00890011
KPDK 132332Z 1400/1424 09007KT P6SM BKN050 BKN120 
     FM140300 09010KT P6SM -RA OVC025 
     FM140800 08008KT 4SM -RA BR BKN007 OVC012 
     FM141200 08011KT 2SM SHRA BR OVC005 
     FM141700 09011KT 4SM SHRA OVC006 
     FM142300 10008KT 2SM SHRA BR OVC007
       
KRMG 140153Z AUTO 14006KT 10SM CLR 11/01 A3014 RMK AO2 SLP205 T01060006
KATL 140152Z 08013KT 10SM BKN055 BKN080 OVC200 09/02 A3016 RMK AO2 SLP216 T00940022
KATL 140200Z 1402/1506 09012G18KT P6SM BKN060 BKN080 OVC200 
     FM140400 09012G18KT P6SM -RA OVC025 
     FM140800 08011G20KT 4SM -RA BR BKN007 OVC012 
     FM141200 08012G20KT 2SM SHRA BR OVC006 
     FM141700 10012KT 4SM SHRA BR OVC006 
     FM150000 10008KT 2SM SHRA BR OVC007
       
KFFC 140153Z AUTO 09006KT 10SM FEW050 BKN065 OVC080 11/04 A3016 RMK AO2 SLP217 T01060044
KGAD 140156Z AUTO 06006KT 10SM -RA BKN050 OVC065 09/06 A3010 RMK AO2 RAE13B38 SLP197 P0000 T00890061
KCHA 140153Z 00000KT 10SM BKN140 OVC250 09/02 A3014 RMK AO2 SLP205 T00890017
KCHA 132328Z 1400/1424 16003KT P6SM BKN150 
     FM140200 08006KT P6SM BKN035 OVC120 
     FM140800 03010KT 5SM -SHRA BR OVC035 
     FM141000 03011KT 4SM RA BR SCT007 OVC015 
     FM141700 07008KT 4SM RA BR BKN007 OVC015 
     FM142000 10008KT 6SM BR OVC015
       
KDNN 140215Z AUTO 18004KT 10SM CLR 10/01 A3015 RMK AO2
KAHN 140232Z AUTO 06008KT 10SM BKN027 BKN034 OVC055 09/02 A3020 RMK AO2 T00890022
KAHN 132332Z 1400/1424 07008KT P6SM BKN070 
     FM140300 09010KT P6SM -RA OVC025 
     FM140800 08008KT 4SM -RA BR BKN007 OVC012 
     FM141200 08011KT 2SM SHRA BR OVC006 
     FM141700 09011KT 4SM SHRA BR OVC004
       
KLZU 140221Z AUTO 06010KT 10SM BKN022 BKN035 OVC060 08/02 A3019 RMK AO2